Time;durP1;ratioP1;P1;durP2;ratioP2;P2;SDS_P1;SDS_P2;PMS_P1;PMS_P2;Temp;Humidity;BMP_temperature;BMP_pressure;BME280_temperature;BME280_humidity;BME280_pressure;Samples;Min_cycle;Max_cycle;Signal;HPM_P1;HPM_P2
2021/06/04 00:02:09;;;;;;;13.40;6.65;;;;;;;12.57;100.00;99941.75;1666591;86;20873;-66
2021/06/04 00:04:38;;;;;;;20.43;9.43;;;;;;;12.58;100.00;99936.64;1634139;87;26811;-66
2021/06/04 00:07:05;;;;;;;22.10;8.65;;;;;;;12.61;100.00;99936.11;1633333;87;21011;-65
2021/06/04 00:09:51;;;;;;;14.85;8.43;;;;;;;12.62;100.00;99939.91;1595158;88;20918;-65
2021/06/04 00:12:18;;;;;;;12.93;8.35;;;;;;;12.59;100.00;99939.59;1597629;88;21001;-65
2021/06/04 00:14:47;;;;;;;13.48;7.97;;;;;;;12.56;100.00;99943.61;1610064;88;20938;-65
2021/06/04 00:17:18;;;;;;;13.10;7.70;;;;;;;12.54;100.00;99941.73;1627839;88;20905;-65
2021/06/04 00:19:45;;;;;;;16.62;7.75;;;;;;;12.51;100.00;99948.16;1628247;88;21009;-67
2021/06/04 00:22:16;;;;;;;16.45;6.92;;;;;;;12.47;100.00;99946.52;1618409;88;21498;-66
2021/06/04 00:24:44;;;;;;;9.10;6.90;;;;;;;12.47;100.00;99945.69;1608030;88;21407;-66
2021/06/04 00:27:12;;;;;;;7.78;6.67;;;;;;;12.47;100.00;99941.64;1623010;88;21375;-66
2021/06/04 00:29:42;;;;;;;8.80;6.47;;;;;;;12.51;100.00;99944.11;1620589;88;20956;-67
2021/06/04 00:32:10;;;;;;;9.63;6.62;;;;;;;12.52;100.00;99939.83;1608846;88;23620;-67
2021/06/04 00:34:36;;;;;;;10.50;6.13;;;;;;;12.50;100.00;99941.96;1625187;83;21453;-67
2021/06/04 00:37:05;;;;;;;7.70;6.20;;;;;;;12.46;100.00;99937.34;1680045;83;21217;-67
2021/06/04 00:39:34;;;;;;;12.80;5.92;;;;;;;12.43;100.00;99939.47;1696130;83;21416;-68
2021/06/04 00:42:18;;;;;;;9.38;6.20;;;;;;;12.43;100.00;99937.33;1703242;83;21736;-67
2021/06/04 00:44:46;;;;;;;9.93;6.25;;;;;;;12.40;100.00;99930.57;1689278;83;20873;-67
2021/06/04 00:47:13;;;;;;;8.80;5.90;;;;;;;12.37;100.00;99935.64;1684537;83;20886;-67
2021/06/04 00:49:42;;;;;;;11.48;5.92;;;;;;;12.36;100.00;99932.14;1684950;84;20914;-67
2021/06/04 00:52:26;;;;;;;12.25;6.90;;;;;;;12.37;100.00;99930.26;1684818;83;20925;-66
2021/06/04 00:54:56;;;;;;;16.00;8.15;;;;;;;12.37;100.00;99928.91;1661140;85;22610;-67
2021/06/04 00:57:25;;;;;;;16.10;9.53;;;;;;;12.36;100.00;99929.99;1660920;85;21026;-66
2021/06/04 01:02:26;;;;;;;11.40;7.12;;;;;;;12.30;100.00;99935.04;1628845;88;21087;-66
2021/06/04 01:04:55;;;;;;;8.73;6.45;;;;;;;12.28;100.00;99933.16;1628913;86;20974;-67
2021/06/04 01:07:41;;;;;;;12.07;7.35;;;;;;;12.25;100.00;99924.23;1628565;88;21103;-67
2021/06/04 01:10:47;;;;;;;9.85;6.97;;;;;;;12.26;100.00;99932.59;1628815;86;21103;-67
2021/06/04 01:13:32;;;;;;;12.60;6.50;;;;;;;12.23;100.00;99935.27;1628743;86;20976;-66
2021/06/04 01:16:11;;;;;;;10.08;6.65;;;;;;;12.19;100.00;99934.95;1590753;89;21032;-66
2021/06/04 01:19:30;;;;;;;15.60;8.75;;;;;;;12.19;100.00;99932.26;1604071;89;20969;-67
2021/06/04 01:22:01;;;;;;;13.68;7.92;;;;;;;12.19;100.00;99927.41;1592250;90;21534;-66
2021/06/04 01:24:52;;;;;;;17.35;8.20;;;;;;;12.17;100.00;99933.05;1594102;89;21011;-66
2021/06/04 01:27:38;;;;;;;16.57;9.48;;;;;;;12.15;100.00;99925.78;1592601;88;21041;-66
2021/06/04 01:30:29;;;;;;;30.92;13.08;;;;;;;12.16;100.00;99926.05;1594925;89;20941;-66
2021/06/04 01:33:06;;;;;;;33.67;16.97;;;;;;;12.16;100.00;99932.78;1600236;89;21115;-66
2021/06/04 01:35:42;;;;;;;18.37;11.93;;;;;;;12.15;100.00;99933.86;1601951;89;21926;-68
2021/06/04 01:38:14;;;;;;;19.55;11.43;;;;;;;12.13;100.00;99934.64;1580067;89;21062;-66
2021/06/04 01:40:45;;;;;;;26.17;13.55;;;;;;;12.11;100.00;99927.35;1580019;89;20956;-67
2021/06/04 01:43:20;;;;;;;16.70;8.45;;;;;;;12.07;100.00;99934.30;1592280;89;21415;-66
2021/06/04 01:45:53;;;;;;;17.32;6.95;;;;;;;12.04;100.00;99925.94;1590935;89;21115;-67
2021/06/04 01:48:29;;;;;;;10.28;6.72;;;;;;;12.03;100.00;99930.51;1624889;87;21892;-67
2021/06/04 01:51:09;;;;;;;10.15;6.65;;;;;;;12.03;100.00;99940.44;1627086;87;20896;-66
2021/06/04 01:53:42;;;;;;;9.78;6.10;;;;;;;12.07;100.00;99941.02;1597220;88;21114;-67
2021/06/04 01:56:15;;;;;;;9.00;6.67;;;;;;;12.09;100.00;99943.47;1592036;88;21573;-67
2021/06/04 01:59:01;;;;;;;10.82;6.97;;;;;;;12.06;100.00;99947.48;1582678;89;21080;-67
2021/06/04 02:01:37;;;;;;;8.05;6.25;;;;;;;12.05;100.00;99947.19;1581884;89;21868;-67
2021/06/04 02:04:12;;;;;;;10.38;6.70;;;;;;;12.04;100.00;99953.64;1556805;90;20920;-67
2021/06/04 02:06:41;;;;;;;11.15;6.33;;;;;;;12.03;100.00;99952.54;1550453;88;21390;-67
2021/06/04 02:09:11;;;;;;;13.72;7.55;;;;;;;12.00;100.00;99950.66;1588715;88;21238;-67
2021/06/04 02:11:41;;;;;;;13.83;8.40;;;;;;;11.98;100.00;99946.06;1587980;89;21001;-65
2021/06/04 02:14:12;;;;;;;14.87;8.58;;;;;;;12.01;100.00;99942.05;1584833;89;21230;-64
2021/06/04 02:17:19;;;;;;;19.65;10.00;;;;;;;12.06;100.00;99941.30;1581209;89;20948;-68
2021/06/04 02:20:11;;;;;;;18.90;10.03;;;;;;;12.09;100.00;99947.50;1568248;89;21036;-64
2021/06/04 02:23:16;;;;;;;15.83;9.58;;;;;;;12.10;100.00;99947.77;1559731;89;22171;-66
2021/06/04 02:25:55;;;;;;;12.13;9.20;;;;;;;12.09;100.00;99948.31;1554990;92;20897;-65
2021/06/04 02:28:31;;;;;;;18.77;11.33;;;;;;;12.11;100.00;99954.26;1566258;89;20950;-65
2021/06/04 02:31:28;;;;;;;20.70;10.98;;;;;;;12.12;100.00;99946.98;1617759;85;20968;-66
2021/06/04 02:34:01;;;;;;;17.10;8.78;;;;;;;12.13;100.00;99949.44;1658007;85;20869;-68
2021/06/04 02:36:34;;;;;;;14.33;7.05;;;;;;;12.17;100.00;99948.38;1657786;85;21481;-68
2021/06/04 02:39:12;;;;;;;11.20;7.20;;;;;;;12.21;100.00;99953.00;1657904;85;20985;-68
2021/06/04 02:41:45;;;;;;;10.45;6.30;;;;;;;12.25;100.00;99956.02;1628135;88;21148;-64
2021/06/04 02:44:20;;;;;;;15.20;8.03;;;;;;;12.28;100.00;99950.66;1627838;86;21081;-65
2021/06/04 02:47:06;;;;;;;13.00;7.90;;;;;;;12.29;100.00;99952.27;1628599;88;20968;-66
2021/06/04 02:49:36;;;;;;;10.53;7.10;;;;;;;12.33;100.00;99958.23;1639349;86;20910;-67
2021/06/04 02:52:30;;;;;;;13.20;7.75;;;;;;;12.36;100.00;99950.18;1662550;86;21077;-67
2021/06/04 02:54:59;;;;;;;10.32;6.22;;;;;;;12.37;100.00;99949.10;1605798;89;21417;-67
2021/06/04 02:57:30;;;;;;;9.78;6.03;;;;;;;12.38;100.00;99950.74;1575002;91;20989;-67
2021/06/04 02:59:58;;;;;;;8.55;6.30;;;;;;;12.43;100.00;99949.44;1575250;91;42138;-67
2021/06/04 03:02:31;;;;;;;10.08;5.30;;;;;;;12.47;100.00;99953.25;1563980;91;21116;-68
2021/06/04 03:05:12;;;;;;;9.33;5.28;;;;;;;12.53;100.00;99950.06;1571466;91;21056;-66
2021/06/04 03:07:41;;;;;;;10.10;6.67;;;;;;;12.59;100.00;99956.58;1532430;93;21454;-66
2021/06/04 03:10:15;;;;;;;11.85;7.10;;;;;;;12.67;100.00;99958.53;1489961;94;21110;-67
2021/06/04 03:12:44;;;;;;;14.20;9.40;;;;;;;12.70;100.00;99954.77;1489539;95;21617;-67
2021/06/04 03:15:23;;;;;;;21.30;12.25;;;;;;;12.74;100.00;99955.05;1445667;98;20990;-67
2021/06/04 03:17:49;;;;;;;24.25;14.38;;;;;;;12.75;100.00;99962.08;1435691;97;21575;-67
2021/06/04 03:20:24;;;;;;;20.17;13.32;;;;;;;12.77;100.00;99960.75;1486466;94;21020;-66
2021/06/04 03:22:52;;;;;;;21.37;13.08;;;;;;;12.80;100.00;99959.42;1483188;95;21501;-66
2021/06/04 03:25:41;;;;;;;18.48;10.35;;;;;;;12.84;100.00;99959.19;1452836;97;20966;-68
2021/06/04 03:28:14;;;;;;;11.88;6.60;;;;;;;12.91;100.00;99954.39;1448302;96;21123;-67
2021/06/04 03:30:45;;;;;;;10.43;7.28;;;;;;;13.03;100.00;99956.36;1447771;96;21015;-67
2021/06/04 03:33:15;;;;;;;10.03;6.30;;;;;;;13.06;100.00;99958.53;1423532;99;21195;-67
2021/06/04 03:35:44;;;;;;;14.30;7.15;;;;;;;13.13;100.00;99948.88;1424447;99;21148;-67
2021/06/04 03:38:12;;;;;;;10.38;6.65;;;;;;;13.20;100.00;99948.63;1444082;98;20936;-66
2021/06/04 03:40:39;;;;;;;13.90;7.28;;;;;;;13.30;100.00;99956.78;1444169;98;21535;-66
2021/06/04 03:43:10;;;;;;;13.83;7.53;;;;;;;13.48;100.00;99959.59;1455178;97;21605;-68
2021/06/04 03:45:39;;;;;;;20.00;8.18;;;;;;;13.70;100.00;99962.11;1544362;91;21176;-68
2021/06/04 03:48:09;;;;;;;12.85;6.85;;;;;;;13.92;100.00;99960.02;1546762;91;21169;-67
2021/06/04 03:50:37;;;;;;;12.43;6.62;;;;;;;14.14;100.00;99954.40;1551345;91;21400;-67
2021/06/04 03:53:06;;;;;;;10.70;6.22;;;;;;;14.25;100.00;99946.31;1560798;90;21153;-66
2021/06/04 03:55:35;;;;;;;8.60;6.00;;;;;;;14.34;100.00;99952.80;1500361;92;21088;-66
2021/06/04 03:58:03;;;;;;;9.28;5.92;;;;;;;14.58;100.00;99955.82;1567915;90;21159;-67
2021/06/04 04:00:38;;;;;;;13.15;6.33;;;;;;;14.81;100.00;99953.09;1515099;92;21017;-65
2021/06/04 04:03:07;;;;;;;14.58;6.03;;;;;;;14.91;100.00;99959.03;1524445;92;21017;-66
2021/06/04 04:05:34;;;;;;;14.80;5.78;;;;;;;14.97;99.01;99960.66;1572066;87;21505;-66
2021/06/04 04:08:02;;;;;;;8.00;5.58;;;;;;;15.06;99.71;99960.90;1574221;90;21004;-67
2021/06/04 04:10:29;;;;;;;10.28;5.92;;;;;;;15.15;99.01;99965.47;1583655;88;22252;-65
2021/06/04 04:12:56;;;;;;;14.10;6.85;;;;;;;15.23;97.91;99962.20;1584563;89;20924;-66
2021/06/04 04:15:25;;;;;;;6.78;5.67;;;;;;;15.30;95.62;99959.77;1584945;90;21051;-66
2021/06/04 04:17:53;;;;;;;6.33;4.95;;;;;;;15.46;94.67;99957.80;1595978;87;21035;-65
2021/06/04 04:20:27;;;;;;;9.20;5.20;;;;;;;15.65;92.05;99958.81;1598964;88;20946;-66
2021/06/04 04:22:55;;;;;;;6.90;4.40;;;;;;;15.88;92.24;99964.16;1606331;88;21745;-67
2021/06/04 04:25:24;;;;;;;7.67;5.10;;;;;;;16.33;89.58;99967.67;1607898;88;20964;-68
2021/06/04 04:27:55;;;;;;;8.18;4.58;;;;;;;16.55;87.87;99964.53;1609262;88;21013;-68
2021/06/04 04:30:24;;;;;;;6.83;4.20;;;;;;;16.83;83.91;99964.86;1591367;89;20956;-66
2021/06/04 04:32:52;;;;;;;7.22;4.35;;;;;;;17.08;83.39;99970.05;1602325;89;20995;-68
2021/06/04 04:35:24;;;;;;;10.53;4.92;;;;;;;17.28;82.65;99973.09;1606789;88;21130;-68
2021/06/04 04:37:54;;;;;;;8.20;5.03;;;;;;;17.38;81.51;99969.46;1620936;87;20996;-68
2021/06/04 04:40:26;;;;;;;8.93;4.80;;;;;;;17.66;76.86;99973.73;1584522;90;21025;-67
2021/06/04 04:42:55;;;;;;;11.38;4.35;;;;;;;17.62;78.62;99973.52;1613991;87;20910;-68
2021/06/04 04:45:25;;;;;;;8.78;4.70;;;;;;;17.44;78.65;99976.98;1613974;87;20977;-67
2021/06/04 04:47:56;;;;;;;10.70;4.35;;;;;;;17.29;79.41;99976.05;1596610;90;21131;-68
2021/06/04 04:50:27;;;;;;;23.67;5.83;;;;;;;17.22;79.85;99975.62;1596484;89;20946;-67
2021/06/04 04:52:56;;;;;;;6.12;4.42;;;;;;;17.12;81.16;99972.98;1614034;87;20953;-66
2021/06/04 04:55:29;;;;;;;8.60;4.90;;;;;;;17.16;80.67;99971.88;1614042;87;20966;-67
2021/06/04 04:57:58;;;;;;;10.70;5.58;;;;;;;17.12;82.70;99977.05;1613575;87;21028;-68
2021/06/04 05:00:28;;;;;;;11.45;4.80;;;;;;;17.13;81.82;99977.33;1576381;90;21444;-68
2021/06/04 05:02:57;;;;;;;9.18;5.12;;;;;;;17.05;83.32;99973.34;1620155;87;21095;-68
2021/06/04 05:05:26;;;;;;;8.95;4.60;;;;;;;17.06;83.53;99974.14;1613987;87;20938;-68
2021/06/04 05:07:53;;;;;;;11.35;5.92;;;;;;;17.02;80.93;99973.89;1613894;87;21391;-68
2021/06/04 05:10:22;;;;;;;8.73;4.87;;;;;;;17.02;81.91;99974.45;1620929;87;21049;-69
2021/06/04 05:12:49;;;;;;;9.50;5.97;;;;;;;17.10;82.89;99981.42;1623479;87;21143;-68
2021/06/04 05:15:19;;;;;;;11.20;5.17;;;;;;;17.10;82.57;99979.27;1623300;87;20926;-68
2021/06/04 05:17:48;;;;;;;8.85;4.62;;;;;;;17.03;82.87;99977.44;1622442;87;20969;-67
2021/06/04 05:20:16;;;;;;;6.97;5.12;;;;;;;17.05;82.07;99977.41;1603819;89;21391;-68
2021/06/04 05:22:43;;;;;;;9.80;5.28;;;;;;;17.07;82.63;99978.46;1623550;87;20989;-68
2021/06/04 05:25:14;;;;;;;11.65;4.87;;;;;;;17.12;83.37;99975.17;1603725;89;21142;-68
2021/06/04 05:27:41;;;;;;;10.08;4.80;;;;;;;17.48;81.66;99987.53;1630003;86;20992;-67
2021/06/04 05:30:16;;;;;;;11.08;4.95;;;;;;;17.88;78.97;99984.08;1623392;87;21067;-68
2021/06/04 05:32:43;;;;;;;6.58;4.35;;;;;;;18.23;76.96;99990.11;1599600;88;21502;-67
2021/06/04 05:35:10;;;;;;;12.23;4.72;;;;;;;18.37;76.53;99990.47;1623109;87;21443;-67
2021/06/04 05:37:37;;;;;;;7.37;4.57;;;;;;;18.37;76.53;99990.47;1599645;88;21125;-67
2021/06/04 05:40:10;;;;;;;9.45;4.70;;;;;;;18.54;72.81;99993.98;1623337;87;21379;-66
2021/06/04 05:42:37;;;;;;;8.08;5.08;;;;;;;18.46;73.83;99993.87;1623014;87;21055;-65
2021/06/04 05:45:18;;;;;;;13.53;5.08;;;;;;;18.42;76.03;100001.26;1623143;87;20943;-66
2021/06/04 05:47:46;;;;;;;9.83;5.25;;;;;;;18.48;76.06;99999.27;1573772;89;20949;-65
2021/06/04 05:50:36;;;;;;;10.43;4.97;;;;;;;18.37;75.46;99997.79;1606958;88;21197;-65
2021/06/04 05:53:06;;;;;;;8.60;5.42;;;;;;;18.23;75.29;99998.27;1600114;88;20997;-65
2021/06/04 05:55:35;;;;;;;11.85;5.42;;;;;;;18.21;76.73;99996.66;1663595;86;21485;-65
2021/06/04 05:58:04;;;;;;;11.00;5.12;;;;;;;18.45;77.60;99989.52;1682213;84;21011;-67
2021/06/04 06:00:42;;;;;;;7.90;5.30;;;;;;;18.91;78.33;100004.56;1681806;84;21445;-67
2021/06/04 06:03:09;;;;;;;12.03;5.92;;;;;;;19.13;73.39;100005.83;1695632;84;21128;-67
2021/06/04 06:05:36;;;;;;;11.28;5.03;;;;;;;19.48;72.79;100008.45;1678619;84;21516;-67
2021/06/04 06:08:05;;;;;;;5.58;4.33;;;;;;;19.73;72.88;100009.09;1687411;84;20907;-67
2021/06/04 06:10:31;;;;;;;15.23;4.78;;;;;;;19.99;71.23;100003.36;1688541;83;20912;-67
2021/06/04 06:12:58;;;;;;;8.43;4.55;;;;;;;20.29;69.02;100002.43;1667475;84;21031;-67
2021/06/04 06:15:28;;;;;;;10.72;4.75;;;;;;;20.72;66.64;100001.97;1684872;84;21904;-66
2021/06/04 06:17:55;;;;;;;7.83;4.40;;;;;;;20.65;67.49;100000.23;1679236;84;20879;-69
2021/06/04 06:20:27;;;;;;;14.67;4.37;;;;;;;20.93;67.67;100006.37;1678292;84;21093;-68
2021/06/04 06:22:54;;;;;;;11.68;4.62;;;;;;;21.31;63.52;100006.75;1685502;84;21016;-68
2021/06/04 06:25:26;;;;;;;10.13;4.65;;;;;;;21.74;61.70;100012.94;1693622;84;20963;-69
2021/06/04 06:27:54;;;;;;;9.63;4.60;;;;;;;21.86;56.32;100016.44;1592269;90;21144;-68
2021/06/04 06:30:22;;;;;;;8.27;4.23;;;;;;;21.48;60.48;100011.48;1542488;92;20979;-68
2021/06/04 06:32:50;;;;;;;10.15;4.42;;;;;;;21.31;59.07;100010.84;1535574;92;21515;-68
2021/06/04 06:35:22;;;;;;;6.50;3.40;;;;;;;21.28;58.58;100017.47;1539134;93;21003;-67
2021/06/04 06:37:49;;;;;;;15.18;4.17;;;;;;;21.36;57.70;100011.23;1527418;92;21147;-68
2021/06/04 06:40:16;;;;;;;18.10;4.15;;;;;;;21.18;59.91;100003.53;1526169;93;21908;-68
2021/06/04 06:42:45;;;;;;;13.75;4.72;;;;;;;21.30;58.99;100003.75;1507475;94;21099;-69
2021/06/04 06:45:27;;;;;;;8.68;4.97;;;;;;;21.46;58.38;100010.19;1532422;93;21060;-68
2021/06/04 06:48:04;;;;;;;13.38;4.53;;;;;;;21.38;58.50;100005.70;1527895;91;21025;-69
2021/06/04 06:50:33;;;;;;;12.68;4.25;;;;;;;21.48;57.22;100006.58;1522076;93;20928;-68
2021/06/04 06:53:03;;;;;;;5.58;4.28;;;;;;;21.42;57.26;100011.95;1532554;92;21510;-68
2021/06/04 06:55:31;;;;;;;8.58;4.22;;;;;;;21.77;55.46;100012.87;1517873;91;21165;-68
2021/06/04 06:57:58;;;;;;;7.15;3.77;;;;;;;21.77;55.34;100015.03;1532443;92;21433;-68
2021/06/04 07:00:29;;;;;;;7.90;4.17;;;;;;;21.91;52.14;100014.12;1538728;93;21025;-69
2021/06/04 07:03:10;;;;;;;9.98;3.55;;;;;;;21.87;53.13;100013.13;1535376;92;20999;-69
2021/06/04 07:06:13;;;;;;;11.30;4.00;;;;;;;22.13;52.93;100009.09;1518885;92;21141;-69
2021/06/04 07:12:47;;;;;;;13.55;4.45;;;;;;;22.53;50.05;100007.03;1480408;94;21560;-69
2021/06/04 07:15:25;;;;;;;5.03;3.90;;;;;;;22.75;50.68;100015.62;1481184;95;21014;-69
2021/06/04 07:17:57;;;;;;;11.33;3.92;;;;;;;23.07;48.49;100014.29;1469763;97;21084;-69
2021/06/04 07:20:25;;;;;;;16.95;3.83;;;;;;;23.31;47.07;100010.20;1467964;97;21485;-68
2021/06/04 07:26:53;;;;;;;6.87;3.45;;;;;;;22.50;45.60;100010.41;1492443;95;21069;-68
2021/06/04 07:29:22;;;;;;;11.43;4.03;;;;;;;22.20;44.90;100006.72;1535261;92;21588;-68
2021/06/04 07:31:49;;;;;;;16.52;3.60;;;;;;;22.07;46.40;100011.15;1552359;92;21111;-67
2021/06/04 07:34:18;;;;;;;7.90;3.90;;;;;;;21.91;47.05;100010.81;1555877;92;21462;-68
2021/06/04 07:36:48;;;;;;;6.35;3.10;;;;;;;21.72;48.27;100006.98;1538809;92;20932;-66
2021/06/04 07:42:31;;;;;;;13.85;3.58;;;;;;;22.55;44.21;100008.88;1541551;91;20998;-69
2021/06/04 07:44:59;;;;;;;32.23;4.97;;;;;;;22.57;44.34;100001.16;1524325;91;21029;-67
2021/06/04 07:47:26;;;;;;;10.45;3.40;;;;;;;22.79;45.29;99991.95;1606409;88;22070;-68
2021/06/04 07:49:54;;;;;;;5.35;3.10;;;;;;;23.24;44.44;99994.27;1611194;87;20948;-67
2021/06/04 07:52:22;;;;;;;5.75;3.20;;;;;;;23.40;42.95;99997.28;1603619;87;21019;-67
2021/06/04 07:54:50;;;;;;;6.05;3.15;;;;;;;23.09;42.31;99995.61;1616814;87;21006;-68
2021/06/04 07:57:18;;;;;;;12.43;3.27;;;;;;;22.42;40.51;99988.78;1640270;85;21462;-68
2021/06/04 07:59:46;;;;;;;9.33;3.00;;;;;;;21.95;41.74;99995.40;1644851;85;22570;-68
2021/06/04 08:02:13;;;;;;;9.95;3.02;;;;;;;21.59;41.18;99993.70;1597892;87;20935;-67
2021/06/04 08:04:40;;;;;;;5.15;2.50;;;;;;;21.44;42.98;99994.13;1645147;85;20908;-68
2021/06/04 08:07:08;;;;;;;12.70;3.22;;;;;;;21.51;43.01;99991.75;1645124;85;21193;-67
2021/06/04 08:09:41;;;;;;;6.75;2.90;;;;;;;21.64;42.60;99992.75;1645103;85;20935;-69
2021/06/04 08:12:07;;;;;;;8.30;3.00;;;;;;;21.74;42.51;99991.09;1644617;85;22047;-67
2021/06/04 08:14:35;;;;;;;5.58;2.77;;;;;;;21.89;42.16;99995.30;1625348;86;20893;-68
2021/06/04 08:17:03;;;;;;;;;;;;;;;22.61;39.29;99994.47;1654399;85;21008;-68
2021/06/04 08:19:33;;;;;;;7.65;2.83;;;;;;;23.05;40.20;99997.41;1666430;85;20293;-69
2021/06/04 08:22:47;;;;;;;17.30;3.98;;;;;;;23.44;39.80;99994.10;1636166;86;21080;-69
2021/06/04 08:25:15;;;;;;;8.50;3.10;;;;;;;22.83;40.75;99998.94;1522053;92;21119;-68
2021/06/04 08:27:44;;;;;;;9.20;3.20;;;;;;;22.64;42.50;100006.95;1510646;92;20971;-68
2021/06/04 08:30:12;;;;;;;10.45;3.25;;;;;;;22.60;42.21;99997.77;1500855;92;20989;-68
2021/06/04 08:48:35;;;;;;;14.90;3.95;;;;;;;22.31;42.62;99990.22;1418768;99;20965;-69
2021/06/04 09:35:18;;;;;;;10.10;2.60;;;;;;;25.64;34.24;99978.37;1605086;88;21473;-68
2021/06/04 09:38:16;;;;;;;5.90;2.08;;;;;;;24.32;35.68;99987.54;1617158;88;21013;-68
2021/06/04 09:40:43;;;;;;;4.97;2.60;;;;;;;23.81;35.29;99984.03;1507434;94;21040;-67
2021/06/04 09:43:23;;;;;;;8.85;2.40;;;;;;;23.54;35.80;99982.80;1466435;96;21238;-67
2021/06/04 09:46:00;;;;;;;4.37;2.15;;;;;;;23.27;35.92;99984.59;1488022;95;21148;-67
2021/06/04 09:48:46;;;;;;;;;;;;;;;22.92;35.98;99979.78;1517499;94;20936;-67
2021/06/04 09:51:37;;;;;;;16.93;2.85;;;;;;;22.81;37.96;99967.81;1481886;96;21189;-66
2021/06/04 09:54:28;;;;;;;6.17;2.70;;;;;;;22.87;36.67;99973.91;1506588;95;21056;-68
2021/06/04 09:57:14;;;;;;;3.60;2.00;;;;;;;23.41;34.81;99961.90;1489513;95;21003;-67
2021/06/04 09:59:42;;;;;;;8.75;2.80;;;;;;;24.04;33.53;99953.02;1497913;95;21032;-68
2021/06/04 10:02:38;;;;;;;4.87;2.25;;;;;;;24.18;32.91;99962.57;1498364;95;21594;-67
2021/06/04 10:05:26;;;;;;;5.55;2.50;;;;;;;24.26;33.71;99965.00;1498679;95;21421;-67
2021/06/04 10:08:06;;;;;;;4.80;1.92;;;;;;;24.08;32.40;99953.38;1485572;95;21543;-66
2021/06/04 10:10:36;;;;;;;3.67;1.82;;;;;;;23.95;33.01;99955.80;1469303;95;20980;-67
2021/06/04 10:13:06;;;;;;;18.37;2.80;;;;;;;23.49;33.55;99949.28;1491368;95;21152;-68
2021/06/04 10:15:43;;;;;;;7.20;2.52;;;;;;;23.57;33.92;99953.11;1479597;95;20994;-67
2021/06/04 10:18:34;;;;;;;6.08;2.42;;;;;;;23.94;33.83;99951.47;1527332;90;21166;-68
2021/06/04 10:21:31;;;;;;;4.20;2.02;;;;;;;23.80;33.46;99950.92;1566465;90;21053;-67
2021/06/04 10:24:17;;;;;;;;;;;;;;;23.95;33.02;99951.69;1554531;89;21690;-69
2021/06/04 10:34:46;;;;;;;9.13;1.90;;;;;;;23.97;32.90;99953.53;1592976;89;20905;-68
2021/06/04 10:37:52;;;;;;;9.18;2.70;;;;;;;23.29;34.10;99946.73;1572569;89;20949;-68
2021/06/04 10:40:47;;;;;;;9.05;2.60;;;;;;;22.77;34.92;99946.33;1571642;89;21177;-70
2021/06/04 10:43:31;;;;;;;6.58;2.52;;;;;;;22.37;36.29;99946.56;1572252;89;21071;-70
2021/06/04 10:46:13;;;;;;;4.78;2.17;;;;;;;22.57;35.68;99949.75;1572612;89;20985;-69
2021/06/04 10:49:25;;;;;;;20.55;3.40;;;;;;;23.26;36.12;99941.34;1568955;89;21210;-70
2021/06/04 10:52:26;;;;;;;4.92;2.15;;;;;;;23.28;36.35;99949.25;1575647;89;20975;-69
2021/06/04 10:55:17;;;;;;;7.55;2.30;;;;;;;23.29;35.84;99942.05;1545979;92;21139;-70
2021/06/04 11:01:58;;;;;;;16.35;3.42;;;;;;;23.16;37.45;99949.94;1497504;94;21660;-69
2021/06/04 11:04:40;;;;;;;26.57;3.35;;;;;;;23.61;36.65;99946.64;1574721;91;21113;-69
2021/06/04 11:11:40;;;;;;;7.10;2.30;;;;;;;23.68;35.37;99947.49;1578482;89;21012;-70
2021/06/04 11:14:46;;;;;;;5.35;2.10;;;;;;;24.20;33.86;99938.91;1587839;90;21613;-69
2021/06/04 11:17:31;;;;;;;3.80;2.10;;;;;;;24.09;33.18;99938.52;1584967;90;21070;-70
2021/06/04 11:20:41;;;;;;;6.55;2.52;;;;;;;24.22;31.96;99932.52;1564053;91;21149;-69
2021/06/04 11:23:46;;;;;;;5.22;2.30;;;;;;;24.20;33.01;99934.80;1533889;93;20964;-68
2021/06/04 11:26:24;;;;;;;5.05;2.10;;;;;;;24.37;32.47;99927.78;1532010;93;21480;-69
2021/06/04 11:29:23;;;;;;;6.05;2.17;;;;;;;24.70;33.66;99927.59;1381645;103;21126;-69
2021/06/04 11:32:12;;;;;;;5.43;2.67;;;;;;;25.33;34.09;99930.90;1377205;103;21139;-69
2021/06/04 11:35:10;;;;;;;9.63;2.65;;;;;;;25.14;32.00;99936.12;1387864;102;21018;-69
2021/06/04 11:37:58;;;;;;;5.45;2.00;;;;;;;24.56;31.86;99930.05;1399969;101;21467;-69
2021/06/04 11:40:50;;;;;;;4.65;2.77;;;;;;;23.80;33.96;99939.95;1395511;101;28855;-68
2021/06/04 11:43:38;;;;;;;10.43;3.37;;;;;;;23.43;36.18;99934.19;1384010;102;21080;-69
2021/06/04 11:46:26;;;;;;;11.30;2.70;;;;;;;23.20;36.62;99937.20;1371452;104;21136;-69
2021/06/04 11:49:17;;;;;;;5.47;2.95;;;;;;;22.95;35.76;99934.75;1370084;103;21201;-69
2021/06/04 11:51:52;;;;;;;4.12;3.12;;;;;;;22.65;36.71;99929.77;1354165;104;21039;-69
2021/06/04 11:54:33;;;;;;;6.17;2.40;;;;;;;22.56;35.42;99925.67;1340115;106;21113;-69
2021/06/04 11:57:43;;;;;;;4.87;2.95;;;;;;;22.58;36.42;99922.63;1341700;105;21079;-69
2021/06/04 12:00:44;;;;;;;4.78;2.40;;;;;;;22.93;35.84;99923.89;1290896;108;21151;-68
2021/06/04 12:03:18;;;;;;;7.90;2.60;;;;;;;23.62;35.03;99922.23;1297772;108;22282;-68
2021/06/04 12:05:53;;;;;;;5.45;2.40;;;;;;;23.94;35.28;99918.00;1303365;105;21171;-69
2021/06/04 12:12:37;;;;;;;6.42;2.47;;;;;;;23.86;33.93;99916.68;1356771;104;21121;-71
2021/06/04 12:15:13;;;;;;;2.60;2.00;;;;;;;24.27;33.49;99910.95;1365945;104;21056;-69
2021/06/04 12:17:51;;;;;;;8.03;2.52;;;;;;;24.35;32.83;99912.25;1392388;101;21278;-69
2021/06/04 12:37:15;;;;;;;8.68;2.00;;;;;;;23.66;33.33;99923.73;1359499;101;21068;-68
2021/06/04 12:40:22;;;;;;;6.60;2.00;;;;;;;23.66;32.93;99917.67;1398139;101;21093;-67
2021/06/04 12:42:57;;;;;;;5.80;2.12;;;;;;;24.05;32.35;99912.91;1398740;101;21072;-69
2021/06/04 12:45:34;;;;;;;7.25;2.15;;;;;;;24.34;32.46;99915.31;1429452;99;21449;-68
2021/06/04 12:48:36;;;;;;;4.40;1.98;;;;;;;24.71;30.71;99910.77;1413346;101;21169;-69
2021/06/04 12:51:10;;;;;;;2.65;2.22;;;;;;;24.96;30.91;99912.17;1376423;103;21183;-70
2021/06/04 12:53:46;;;;;;;6.08;2.22;;;;;;;25.06;31.26;99897.20;1374820;103;21526;-67
2021/06/04 12:56:21;;;;;;;10.70;2.17;;;;;;;24.54;31.78;99903.52;1436128;98;21134;-69
2021/06/04 12:59:07;;;;;;;8.10;2.40;;;;;;;24.24;32.01;99906.94;1426233;100;20930;-70
2021/06/04 13:01:39;;;;;;;7.80;2.27;;;;;;;24.12;32.80;99907.68;1457488;98;21557;-68
2021/06/04 13:04:20;;;;;;;3.67;1.87;;;;;;;24.35;32.48;99902.65;1462693;98;21158;-68
2021/06/04 13:06:51;;;;;;;3.62;2.27;;;;;;;24.08;32.96;99893.61;1458387;98;20998;-69
2021/06/04 13:09:44;;;;;;;5.55;2.65;;;;;;;23.90;34.10;99897.86;1400330;100;21030;-68
2021/06/04 13:12:27;;;;;;;5.28;2.37;;;;;;;24.07;33.24;99893.38;1450919;98;21517;-69
2021/06/04 13:14:55;;;;;;;4.65;1.90;;;;;;;24.66;33.41;99895.09;1460206;92;21607;-69
2021/06/04 13:17:32;;;;;;;5.50;2.42;;;;;;;25.05;31.68;99893.66;1544833;92;21244;-68
2021/06/04 13:20:10;;;;;;;8.25;2.30;;;;;;;24.56;31.15;99893.58;1570461;91;20963;-68
2021/06/04 13:22:41;;;;;;;9.35;2.33;;;;;;;23.89;31.48;99892.16;1543915;91;20999;-66
2021/06/04 13:25:25;;;;;;;6.05;2.10;;;;;;;23.61;32.93;99888.30;1543747;91;20917;-67
2021/06/04 13:28:19;;;;;;;5.60;2.60;;;;;;;23.47;33.22;99892.11;1651760;85;20953;-68
2021/06/04 13:30:52;;;;;;;379.35;27.32;;;;;;;23.02;33.78;99890.48;1638646;85;21957;-69
2021/06/04 13:33:29;;;;;;;11.90;2.70;;;;;;;22.66;35.91;99899.37;1643076;85;20905;-69
2021/06/04 13:36:03;;;;;;;9.88;3.52;;;;;;;22.61;35.95;99895.44;1627582;86;21049;-69
2021/06/04 13:39:36;;;;;;;14.47;3.27;;;;;;;22.58;35.12;99887.06;1576551;89;21023;-68
2021/06/04 13:42:16;;;;;;;11.00;3.62;;;;;;;22.36;36.13;99884.77;1494747;93;21012;-69
2021/06/04 13:44:40;;;;;;;12.18;3.75;;;;;;;22.41;36.27;99890.07;1512740;91;21169;-69
2021/06/04 13:47:50;;;;;;;13.43;2.50;;;;;;;22.41;36.50;99885.17;1512954;93;21063;-69
2021/06/04 13:50:49;;;;;;;6.72;2.37;;;;;;;22.52;37.31;99885.65;1512965;93;20972;-68
2021/06/04 13:54:10;;;;;;;6.97;2.42;;;;;;;23.10;37.19;99879.51;1493497;94;21534;-68
2021/06/04 13:57:25;;;;;;;4.67;2.15;;;;;;;23.57;34.17;99879.13;1469709;97;21028;-69
2021/06/04 14:03:15;;;;;;;4.25;2.17;;;;;;;24.86;34.17;99886.55;1283215;110;20227;-66